Time;durP1;ratioP1;P1;durP2;ratioP2;P2;SDS_P1;SDS_P2;PMS_P1;PMS_P2;Temp;Humidity;BMP_temperature;BMP_pressure;BME280_temperature;BME280_humidity;BME280_pressure;Samples;Min_cycle;Max_cycle;Signal;HPM_P1;HPM_P2
2023/05/22 00:00:17;;;;;;;39.17;35.30;;;16.50;99.90;;;;;;5074473;28;20094;-39
2023/05/22 00:02:43;;;;;;;39.60;35.45;;;16.50;99.90;;;;;;5074899;28;20516;-39
2023/05/22 00:05:10;;;;;;;41.03;36.83;;;16.50;99.90;;;;;;5056634;28;20062;-42
2023/05/22 00:07:37;;;;;;;41.60;37.17;;;16.50;99.90;;;;;;5073960;28;20086;-38
2023/05/22 00:10:03;;;;;;;40.38;36.20;;;16.50;99.90;;;;;;5063693;28;20058;-42
2023/05/22 00:12:29;;;;;;;41.70;37.25;;;16.60;99.90;;;;;;5074118;28;20052;-41
2023/05/22 00:14:55;;;;;;;42.65;38.20;;;16.50;99.90;;;;;;5073377;28;20117;-40
2023/05/22 00:17:20;;;;;;;39.30;35.45;;;16.60;99.90;;;;;;5072473;28;20560;-42
2023/05/22 00:19:46;;;;;;;41.53;37.25;;;16.60;99.90;;;;;;5073819;28;20056;-38
2023/05/22 00:22:12;;;;;;;41.85;37.58;;;16.60;99.90;;;;;;5073398;28;20048;-36
2023/05/22 00:24:37;;;;;;;40.63;36.00;;;16.60;99.90;;;;;;5073931;28;20096;-41
2023/05/22 00:27:03;;;;;;;42.70;38.50;;;16.60;99.90;;;;;;5074195;28;20048;-42
2023/05/22 00:29:30;;;;;;;43.20;38.60;;;16.60;99.90;;;;;;5072912;28;20073;-41
2023/05/22 00:31:55;;;;;;;43.67;39.22;;;16.60;99.90;;;;;;5073856;28;20063;-39
2023/05/22 00:34:21;;;;;;;41.47;37.30;;;16.60;99.90;;;;;;5072438;28;20060;-44
2023/05/22 00:36:46;;;;;;;41.65;37.25;;;16.60;99.90;;;;;;5068234;28;20043;-38
2023/05/22 00:39:12;;;;;;;42.95;38.65;;;16.60;99.90;;;;;;5073561;28;20276;-39
2023/05/22 00:41:38;;;;;;;40.53;36.55;;;16.50;99.90;;;;;;5074144;28;20495;-39
2023/05/22 00:44:03;;;;;;;41.45;37.33;;;16.50;99.90;;;;;;5060908;28;20374;-37
2023/05/22 00:46:29;;;;;;;40.22;36.25;;;16.40;99.90;;;;;;5072858;28;20416;-42
2023/05/22 00:48:55;;;;;;;41.33;37.25;;;16.40;99.90;;;;;;5073748;28;20055;-38
2023/05/22 00:51:22;;;;;;;40.75;36.65;;;16.40;99.90;;;;;;5072084;28;20554;-45
2023/05/22 00:53:49;;;;;;;39.20;34.97;;;16.30;99.90;;;;;;5073018;28;20347;-37
2023/05/22 00:56:16;;;;;;;41.95;37.55;;;16.30;99.90;;;;;;5072458;28;20048;-39
2023/05/22 00:58:41;;;;;;;43.08;38.55;;;16.30;99.90;;;;;;5073692;28;20055;-41
2023/05/22 01:01:10;;;;;;;42.00;38.03;;;16.30;99.90;;;;;;5073348;28;20418;-43
2023/05/22 01:03:43;;;;;;;40.55;36.35;;;16.20;99.90;;;;;;5073713;28;20604;-37
2023/05/22 01:06:13;;;;;;;44.63;39.92;;;16.20;99.90;;;;;;5072549;28;20090;-43
2023/05/22 01:08:41;;;;;;;44.88;40.38;;;16.20;99.90;;;;;;5071961;28;20060;-43
2023/05/22 01:11:21;;;;;;;46.55;41.83;;;16.20;99.90;;;;;;5066543;28;20556;-43
2023/05/22 01:13:55;;;;;;;46.70;41.83;;;16.10;99.90;;;;;;5073449;28;20079;-40
2023/05/22 01:16:40;;;;;;;44.00;39.67;;;16.10;99.90;;;;;;5075537;28;20492;-39
2023/05/22 01:19:30;;;;;;;45.97;41.10;;;16.00;99.90;;;;;;5078031;28;20048;-38
2023/05/22 01:22:21;;;;;;;44.65;40.25;;;16.10;99.90;;;;;;5077570;28;20055;-40
2023/05/22 01:25:05;;;;;;;44.47;39.88;;;16.10;99.90;;;;;;5077159;28;20557;-47
2023/05/22 01:27:44;;;;;;;47.92;43.13;;;16.10;99.90;;;;;;5076607;28;20052;-36
2023/05/22 01:30:37;;;;;;;44.25;39.88;;;16.10;99.90;;;;;;5076153;28;20055;-42
2023/05/22 01:33:05;;;;;;;45.00;40.53;;;16.10;99.90;;;;;;5065277;28;20048;-43
2023/05/22 01:35:33;;;;;;;47.03;42.42;;;16.10;99.90;;;;;;5076780;28;20059;-43
2023/05/22 01:38:01;;;;;;;47.53;42.70;;;16.10;99.90;;;;;;5073959;28;20048;-39
2023/05/22 01:40:27;;;;;;;46.20;41.55;;;16.10;99.90;;;;;;5076925;28;20059;-42
2023/05/22 01:42:54;;;;;;;46.83;41.80;;;16.10;99.90;;;;;;5070499;28;20155;-39
2023/05/22 01:45:20;;;;;;;46.65;41.75;;;16.10;99.90;;;;;;5071819;28;20050;-37
2023/05/22 01:47:46;;;;;;;47.53;42.72;;;16.00;99.90;;;;;;5075455;28;20047;-40
2023/05/22 01:50:12;;;;;;;48.72;43.60;;;16.00;99.90;;;;;;5076965;28;20097;-39
2023/05/22 01:52:47;;;;;;;48.10;42.85;;;16.00;99.90;;;;;;5076801;28;20063;-45
2023/05/22 01:55:17;;;;;;;45.22;40.70;;;16.10;99.90;;;;;;5077141;28;20382;-38
2023/05/22 01:57:54;;;;;;;44.10;39.72;;;16.00;99.90;;;;;;5075451;28;20537;-37
2023/05/22 02:00:23;;;;;;;47.50;42.53;;;16.10;99.90;;;;;;5073435;28;20118;-44
2023/05/22 02:02:56;;;;;;;44.17;39.95;;;16.10;99.90;;;;;;5065722;28;20558;-39
2023/05/22 02:05:23;;;;;;;46.25;41.53;;;16.10;99.90;;;;;;5073312;28;20063;-41
2023/05/22 02:07:49;;;;;;;46.35;41.70;;;16.10;99.90;;;;;;5074759;28;20043;-41
2023/05/22 02:10:17;;;;;;;49.75;41.97;;;16.10;99.90;;;;;;5067603;28;20506;-40
2023/05/22 02:12:43;;;;;;;45.58;40.95;;;16.10;99.90;;;;;;5076444;28;20052;-40
2023/05/22 02:15:10;;;;;;;48.55;43.55;;;16.10;99.90;;;;;;5074508;28;20104;-39
2023/05/22 02:17:39;;;;;;;47.88;43.08;;;16.00;99.90;;;;;;5074654;28;20070;-42
2023/05/22 02:20:13;;;;;;;48.00;43.10;;;15.90;99.90;;;;;;5076358;28;20581;-40
2023/05/22 02:22:40;;;;;;;47.95;42.80;;;15.90;99.90;;;;;;5075831;28;20101;-38
2023/05/22 02:25:10;;;;;;;47.88;43.03;;;15.80;99.90;;;;;;5074656;28;20168;-40
2023/05/22 02:27:36;;;;;;;48.58;43.58;;;15.80;99.90;;;;;;5075112;28;20048;-44
2023/05/22 02:30:02;;;;;;;50.00;44.75;;;15.80;99.90;;;;;;5074802;28;20056;-45
2023/05/22 02:32:27;;;;;;;49.63;44.60;;;15.80;99.90;;;;;;5076304;28;20052;-40
2023/05/22 02:34:53;;;;;;;48.05;43.20;;;15.80;99.90;;;;;;5075594;28;20463;-43
2023/05/22 02:37:19;;;;;;;46.83;42.00;;;15.80;99.90;;;;;;5069365;28;20047;-39
2023/05/22 02:39:45;;;;;;;49.10;43.90;;;15.80;99.90;;;;;;5075713;28;20046;-39
2023/05/22 02:42:10;;;;;;;49.65;44.47;;;15.80;99.90;;;;;;5075015;28;20453;-43
2023/05/22 02:44:36;;;;;;;47.85;42.78;;;15.80;99.90;;;;;;5064069;28;20447;-41
2023/05/22 02:47:02;;;;;;;48.70;43.67;;;15.90;99.90;;;;;;5075167;28;20089;-37
2023/05/22 02:49:27;;;;;;;49.08;44.15;;;15.80;99.90;;;;;;5076466;28;20044;-40
2023/05/22 02:51:53;;;;;;;48.45;43.17;;;15.80;99.90;;;;;;5075652;28;20072;-43
2023/05/22 02:54:18;;;;;;;48.88;43.65;;;15.80;99.90;;;;;;5075945;28;20063;-45
2023/05/22 02:56:44;;;;;;;46.75;42.08;;;15.80;99.90;;;;;;5074768;28;20144;-46
2023/05/22 02:59:10;;;;;;;49.13;44.10;;;15.90;99.90;;;;;;5074598;28;20051;-37
2023/05/22 03:01:37;;;;;;;50.97;45.50;;;15.90;99.90;;;;;;5075784;28;20059;-39
2023/05/22 03:04:03;;;;;;;46.78;41.70;;;15.90;99.90;;;;;;5075491;28;20051;-43
2023/05/22 03:06:29;;;;;;;49.35;44.15;;;15.90;99.90;;;;;;5072585;28;20044;-41
2023/05/22 03:08:55;;;;;;;47.80;42.83;;;15.90;99.90;;;;;;5072287;28;20090;-41
2023/05/22 03:11:20;;;;;;;49.38;43.65;;;15.90;99.90;;;;;;5070500;28;20566;-46
2023/05/22 03:13:46;;;;;;;44.90;40.45;;;15.90;99.90;;;;;;5074864;28;20055;-41
2023/05/22 03:16:11;;;;;;;48.63;43.47;;;15.90;99.90;;;;;;5073219;28;20079;-39
2023/05/22 03:18:37;;;;;;;45.90;41.50;;;15.90;99.90;;;;;;5073416;28;20070;-42
2023/05/22 03:21:03;;;;;;;46.35;41.78;;;15.90;99.90;;;;;;5075142;28;20056;-42
2023/05/22 03:23:29;;;;;;;46.63;42.08;;;15.90;99.90;;;;;;5075403;28;20446;-39
2023/05/22 03:25:55;;;;;;;50.35;45.50;;;15.90;99.90;;;;;;5073288;28;20057;-41
2023/05/22 03:28:21;;;;;;;49.15;44.10;;;15.90;99.90;;;;;;5073623;28;20087;-43
2023/05/22 03:30:47;;;;;;;50.80;45.55;;;15.90;99.90;;;;;;5074644;28;20159;-39
2023/05/22 03:33:12;;;;;;;50.38;45.28;;;15.90;99.90;;;;;;5075488;28;20047;-42
2023/05/22 03:35:38;;;;;;;51.03;45.70;;;15.90;99.90;;;;;;5069893;28;20044;-42
2023/05/22 03:38:04;;;;;;;50.40;45.05;;;15.90;99.90;;;;;;5070970;28;20486;-39
2023/05/22 03:40:29;;;;;;;49.70;44.50;;;15.90;99.90;;;;;;5074845;28;20056;-37
2023/05/22 03:42:55;;;;;;;49.00;43.90;;;15.90;99.90;;;;;;5066760;28;20040;-42
2023/05/22 03:45:21;;;;;;;47.67;43.05;;;15.90;99.90;;;;;;5069033;28;20048;-42
2023/05/22 03:47:46;;;;;;;51.17;46.00;;;15.90;99.90;;;;;;5074451;28;20176;-39
2023/05/22 03:50:12;;;;;;;49.22;44.50;;;15.80;99.90;;;;;;5075271;28;20044;-40
2023/05/22 03:52:38;;;;;;;49.85;44.78;;;15.90;99.90;;;;;;5074738;28;20059;-39
2023/05/22 03:55:04;;;;;;;50.17;45.25;;;15.80;99.90;;;;;;5074591;28;20044;-40
2023/05/22 03:57:30;;;;;;;49.55;44.45;;;15.90;99.90;;;;;;5073784;28;20044;-39
2023/05/22 03:59:56;;;;;;;50.40;45.30;;;15.90;99.90;;;;;;5072746;28;20078;-37
2023/05/22 04:02:25;;;;;;;50.88;45.92;;;15.90;99.90;;;;;;5064369;28;20066;-40
2023/05/22 04:04:50;;;;;;;47.00;42.58;;;15.90;99.90;;;;;;5072710;28;20155;-40
2023/05/22 04:07:17;;;;;;;48.45;43.70;;;16.00;99.90;;;;;;5072596;28;20040;-41
2023/05/22 04:09:42;;;;;;;46.17;41.70;;;16.00;99.90;;;;;;5066558;28;20155;-37
2023/05/22 04:12:08;;;;;;;47.70;43.03;;;16.00;99.90;;;;;;5073939;28;20426;-38
2023/05/22 04:14:34;;;;;;;50.00;44.95;;;16.00;99.90;;;;;;5073849;28;20060;-39
2023/05/22 04:17:00;;;;;;;46.22;41.47;;;16.00;99.90;;;;;;5072979;28;20047;-42
2023/05/22 04:19:26;;;;;;;48.78;44.13;;;16.00;99.90;;;;;;5074234;28;20236;-40
2023/05/22 04:21:53;;;;;;;49.97;44.65;;;16.10;99.90;;;;;;5073620;28;20048;-41
2023/05/22 04:24:21;;;;;;;50.65;45.55;;;16.10;99.90;;;;;;5074036;28;20349;-41
2023/05/22 04:26:50;;;;;;;49.95;44.88;;;16.00;99.90;;;;;;5073283;28;20044;-41
2023/05/22 04:29:15;;;;;;;50.42;45.42;;;16.00;99.90;;;;;;5074021;28;20131;-39
2023/05/22 04:31:42;;;;;;;50.03;45.30;;;16.10;99.90;;;;;;5074218;28;20052;-40
2023/05/22 04:34:11;;;;;;;52.88;47.33;;;16.10;99.90;;;;;;5073999;28;20050;-46
2023/05/22 04:36:37;;;;;;;49.58;44.17;;;16.10;99.90;;;;;;5068563;28;20051;-46
2023/05/22 04:39:03;;;;;;;49.20;44.40;;;16.00;99.90;;;;;;5072846;28;20088;-36
2023/05/22 04:41:29;;;;;;;49.55;44.72;;;16.10;99.90;;;;;;5073758;28;20503;-45
2023/05/22 04:43:55;;;;;;;51.67;46.08;;;16.10;99.90;;;;;;5060630;28;20549;-41
2023/05/22 04:46:21;;;;;;;49.67;44.65;;;16.00;99.90;;;;;;5072168;28;20105;-46
2023/05/22 04:48:47;;;;;;;49.40;44.17;;;16.00;99.90;;;;;;5072123;28;20137;-38
2023/05/22 04:51:13;;;;;;;51.65;46.22;;;16.10;99.90;;;;;;5068928;28;20060;-40
2023/05/22 04:53:39;;;;;;;52.30;46.63;;;16.10;99.90;;;;;;5073563;28;20358;-37
2023/05/22 04:56:05;;;;;;;49.95;44.83;;;16.10;99.90;;;;;;5072609;28;20421;-41
2023/05/22 04:58:31;;;;;;;51.30;46.00;;;16.10;99.90;;;;;;5072069;28;20134;-41
2023/05/22 05:00:57;;;;;;;51.08;45.60;;;16.00;99.90;;;;;;5072860;28;20495;-37
2023/05/22 05:03:27;;;;;;;51.92;46.40;;;16.00;99.90;;;;;;5073111;28;20479;-42
2023/05/22 05:05:53;;;;;;;48.03;43.38;;;15.90;99.90;;;;;;5071576;28;20055;-39
2023/05/22 05:08:18;;;;;;;49.55;44.45;;;16.10;99.90;;;;;;5073494;28;20040;-37
2023/05/22 05:10:44;;;;;;;50.58;45.08;;;16.00;99.90;;;;;;5065582;28;20055;-44
2023/05/22 05:13:10;;;;;;;50.00;45.08;;;16.10;99.90;;;;;;5073718;28;20071;-41
2023/05/22 05:15:35;;;;;;;49.22;44.17;;;16.10;99.90;;;;;;5072218;28;20047;-42
2023/05/22 05:18:01;;;;;;;51.97;46.65;;;16.10;99.90;;;;;;5072758;28;20048;-42
2023/05/22 05:20:27;;;;;;;50.55;45.13;;;16.20;99.90;;;;;;5073673;28;20106;-39
2023/05/22 05:22:52;;;;;;;53.95;48.05;;;16.10;99.90;;;;;;5071547;28;20052;-39
2023/05/22 05:25:18;;;;;;;51.20;45.78;;;16.10;99.90;;;;;;5072503;28;20063;-38
2023/05/22 05:27:44;;;;;;;53.47;44.60;;;16.10;99.90;;;;;;5072034;28;20056;-44
2023/05/22 05:30:09;;;;;;;51.53;46.13;;;16.10;99.90;;;;;;5072317;28;20085;-38
2023/05/22 05:32:35;;;;;;;52.22;47.13;;;16.00;99.90;;;;;;5073654;28;20079;-40
2023/05/22 05:35:01;;;;;;;52.90;47.40;;;16.00;99.90;;;;;;5073660;28;20043;-40
2023/05/22 05:37:27;;;;;;;52.85;47.42;;;15.90;99.90;;;;;;5067622;28;20054;-42
2023/05/22 05:39:52;;;;;;;51.00;45.67;;;15.80;99.90;;;;;;5072921;28;20052;-43
2023/05/22 05:42:18;;;;;;;50.03;44.85;;;15.90;99.90;;;;;;5070936;28;20048;-42
2023/05/22 05:44:44;;;;;;;50.67;43.70;;;15.90;99.90;;;;;;5062171;28;20081;-47
2023/05/22 05:47:10;;;;;;;45.45;40.67;;;15.90;99.90;;;;;;5069626;28;20044;-42
2023/05/22 05:49:35;;;;;;;41.85;37.45;;;15.90;99.90;;;;;;5073307;28;20184;-40
2023/05/22 05:52:01;;;;;;;46.78;35.00;;;15.90;99.90;;;;;;5072463;28;20039;-42
2023/05/22 05:54:27;;;;;;;40.28;31.50;;;15.80;99.90;;;;;;5072512;28;20086;-40
2023/05/22 05:56:53;;;;;;;35.92;27.80;;;15.80;99.90;;;;;;5071419;28;20082;-40
2023/05/22 05:59:19;;;;;;;36.28;23.95;;;15.80;99.90;;;;;;5072872;28;20054;-38
2023/05/22 06:01:46;;;;;;;36.60;21.38;;;15.70;99.90;;;;;;5073413;28;20048;-43
2023/05/22 06:04:14;;;;;;;36.20;20.95;;;15.70;99.90;;;;;;5077182;28;20047;-38
2023/05/22 06:06:41;;;;;;;33.97;18.30;;;15.70;99.90;;;;;;5075912;28;20131;-43
2023/05/22 06:09:07;;;;;;;33.78;18.52;;;15.70;99.90;;;;;;5071974;28;20168;-44
2023/05/22 06:11:33;;;;;;;29.17;16.83;;;15.70;99.90;;;;;;5074021;28;20048;-41
2023/05/22 06:14:01;;;;;;;26.23;16.42;;;15.70;99.90;;;;;;5076422;28;20131;-42
2023/05/22 06:16:27;;;;;;;27.73;16.67;;;15.80;99.90;;;;;;5074924;28;20117;-37
2023/05/22 06:18:53;;;;;;;23.10;15.07;;;15.80;99.90;;;;;;5076752;28;20555;-40
2023/05/22 06:21:21;;;;;;;23.92;14.57;;;15.90;99.90;;;;;;5076339;28;20055;-40
2023/05/22 06:23:48;;;;;;;25.60;14.57;;;16.00;99.90;;;;;;5075896;28;20130;-39
2023/05/22 06:26:14;;;;;;;28.95;14.82;;;16.10;99.90;;;;;;5074988;28;20571;-46
2023/05/22 06:28:40;;;;;;;21.38;14.48;;;16.30;99.90;;;;;;5074758;28;20048;-43
2023/05/22 06:31:08;;;;;;;31.77;15.23;;;16.60;99.90;;;;;;5074811;28;20052;-38
2023/05/22 06:33:33;;;;;;;23.40;13.52;;;16.80;99.90;;;;;;5075189;28;20550;-40
2023/05/22 06:35:59;;;;;;;27.85;14.95;;;17.00;99.90;;;;;;5069885;28;20078;-42
2023/05/22 06:38:25;;;;;;;27.67;14.88;;;17.10;99.90;;;;;;5076345;28;20118;-40
2023/05/22 06:40:51;;;;;;;25.77;14.98;;;17.10;99.90;;;;;;5075391;28;20040;-42
2023/05/22 06:43:17;;;;;;;25.20;14.40;;;17.10;99.90;;;;;;5065541;28;20044;-39
2023/05/22 06:45:43;;;;;;;41.55;16.90;;;17.20;99.90;;;;;;5072762;28;20047;-42
2023/05/22 06:48:08;;;;;;;21.73;13.38;;;17.10;99.90;;;;;;5057904;28;20489;-42
2023/05/22 06:50:34;;;;;;;25.17;14.70;;;17.10;99.90;;;;;;5076772;28;20052;-44
2023/05/22 06:53:00;;;;;;;20.38;13.10;;;17.10;99.90;;;;;;5074579;28;20054;-37
2023/05/22 06:55:26;;;;;;;27.77;13.30;;;17.20;99.90;;;;;;5074242;28;20048;-42
2023/05/22 06:57:51;;;;;;;14.93;12.90;;;17.30;99.90;;;;;;5074132;28;20430;-42
2023/05/22 07:00:18;;;;;;;18.52;12.88;;;17.40;99.90;;;;;;5075854;28;20044;-37
2023/05/22 07:02:43;;;;;;;23.55;12.23;;;17.40;99.90;;;;;;5075252;28;20047;-42
2023/05/22 07:05:09;;;;;;;15.18;11.95;;;17.40;99.90;;;;;;5075118;28;20048;-41
2023/05/22 07:07:35;;;;;;;18.50;12.35;;;17.50;99.90;;;;;;5075655;28;20051;-41
2023/05/22 07:10:01;;;;;;;15.63;10.90;;;17.60;99.90;;;;;;5065695;28;20055;-37
2023/05/22 07:12:27;;;;;;;20.65;12.40;;;17.60;99.90;;;;;;5075191;28;20090;-40
2023/05/22 07:14:53;;;;;;;17.48;11.65;;;17.50;99.90;;;;;;5061584;28;20117;-37
2023/05/22 07:17:20;;;;;;;16.00;11.32;;;17.60;99.90;;;;;;5070772;28;20040;-37
2023/05/22 07:19:47;;;;;;;15.00;11.88;;;17.80;99.90;;;;;;5073383;28;20251;-38
2023/05/22 07:22:13;;;;;;;14.93;12.32;;;17.80;99.90;;;;;;5076325;28;20054;-38
2023/05/22 07:24:39;;;;;;;16.00;12.18;;;18.00;99.90;;;;;;5056766;28;20403;-37
2023/05/22 07:27:04;;;;;;;16.92;10.85;;;18.30;99.90;;;;;;5074614;28;20060;-40
2023/05/22 07:29:30;;;;;;;14.65;12.05;;;18.20;99.90;;;;;;5073958;28;20054;-46
2023/05/22 07:31:56;;;;;;;11.90;10.15;;;18.40;99.90;;;;;;5075502;28;20048;-42
2023/05/22 07:34:21;;;;;;;12.50;9.95;;;18.70;99.90;;;;;;5073202;28;20060;-44
2023/05/22 07:36:47;;;;;;;14.57;10.13;;;19.10;99.90;;;;;;5068778;28;20051;-43
2023/05/22 07:39:13;;;;;;;14.38;9.68;;;19.60;99.90;;;;;;5074627;28;20052;-37
2023/05/22 07:41:39;;;;;;;13.35;9.25;;;20.00;99.90;;;;;;5057739;28;20652;-41
2023/05/22 07:44:05;;;;;;;12.20;8.82;;;20.50;99.90;;;;;;5062829;28;20129;-46
2023/05/22 07:46:31;;;;;;;12.63;8.95;;;20.80;99.90;;;;;;5074471;28;20051;-43
2023/05/22 07:48:57;;;;;;;13.48;8.57;;;20.90;99.90;;;;;;5074435;28;20078;-41
2023/05/22 07:51:22;;;;;;;13.30;7.97;;;21.10;99.90;;;;;;5072455;28;20040;-43
2023/05/22 07:53:48;;;;;;;14.52;8.55;;;21.20;99.90;;;;;;5071991;28;20047;-41
2023/05/22 07:56:13;;;;;;;22.42;10.20;;;21.20;99.90;;;;;;5073629;28;20405;-51
2023/05/22 07:58:39;;;;;;;12.68;9.73;;;21.20;99.90;;;;;;5068534;28;20513;-42
2023/05/22 08:01:06;;;;;;;11.35;7.97;;;21.40;99.90;;;;;;5074407;28;20375;-41
2023/05/22 08:03:32;;;;;;;11.05;7.90;;;21.80;99.90;;;;;;5064872;28;20403;-42
2023/05/22 08:05:58;;;;;;;10.95;7.38;;;21.70;99.90;;;;;;5072746;28;20187;-39
2023/05/22 08:08:24;;;;;;;14.52;9.50;;;21.70;99.90;;;;;;5067748;28;20477;-44
2023/05/22 08:10:50;;;;;;;10.30;7.72;;;21.40;99.90;;;;;;5067059;28;20052;-42
2023/05/22 08:13:17;;;;;;;11.95;8.23;;;21.50;99.90;;;;;;5074131;28;20048;-43
2023/05/22 08:15:43;;;;;;;10.00;7.18;;;21.40;99.90;;;;;;5073042;28;20047;-40
2023/05/22 08:18:10;;;;;;;13.50;7.82;;;21.50;99.90;;;;;;5074357;28;20555;-43
2023/05/22 08:20:37;;;;;;;12.05;7.70;;;21.50;99.90;;;;;;5073253;28;20060;-41
2023/05/22 08:23:02;;;;;;;9.23;6.63;;;21.40;99.90;;;;;;5072744;28;20047;-45
2023/05/22 08:25:28;;;;;;;12.05;7.43;;;21.30;99.90;;;;;;5071826;28;20078;-38
2023/05/22 08:27:54;;;;;;;12.50;7.50;;;21.20;99.90;;;;;;5073612;28;20440;-38
2023/05/22 08:30:19;;;;;;;10.43;7.10;;;21.30;99.90;;;;;;5074083;28;20044;-44
2023/05/22 08:32:45;;;;;;;11.52;7.78;;;21.40;99.90;;;;;;5072476;28;20102;-42
2023/05/22 08:35:11;;;;;;;9.50;8.55;;;21.50;99.90;;;;;;5072314;28;20055;-47
2023/05/22 08:37:36;;;;;;;8.38;7.38;;;21.40;99.90;;;;;;5068338;28;20044;-45
2023/05/22 08:40:03;;;;;;;12.68;7.90;;;21.40;99.90;;;;;;5072281;28;20044;-44
2023/05/22 08:42:28;;;;;;;10.93;6.93;;;21.20;99.90;;;;;;5068879;28;20060;-45
2023/05/22 08:44:56;;;;;;;11.50;7.53;;;21.20;99.90;;;;;;5059955;28;20057;-47
2023/05/22 08:47:25;;;;;;;12.98;8.05;;;21.10;99.90;;;;;;5071405;28;20112;-39
2023/05/22 08:49:53;;;;;;;13.82;8.60;;;21.00;99.90;;;;;;5073061;28;20044;-42
2023/05/22 08:52:30;;;;;;;11.10;7.78;;;21.00;99.90;;;;;;5072075;28;20063;-41
2023/05/22 08:54:56;;;;;;;11.70;10.05;;;20.90;99.90;;;;;;5072721;28;20097;-42
2023/05/22 08:57:23;;;;;;;20.27;9.18;;;20.90;99.90;;;;;;5073088;28;20527;-41
2023/05/22 08:59:49;;;;;;;15.70;8.95;;;20.90;99.90;;;;;;5072383;28;20052;-39
2023/05/22 09:02:16;;;;;;;12.95;9.05;;;21.00;99.90;;;;;;5074490;28;20355;-43
2023/05/22 09:04:42;;;;;;;11.40;8.65;;;21.10;99.90;;;;;;5073610;28;20044;-42
2023/05/22 09:07:08;;;;;;;14.77;10.63;;;21.10;99.90;;;;;;5070166;28;20369;-44
2023/05/22 09:09:40;;;;;;;11.00;9.95;;;21.40;99.90;;;;;;5059003;28;20676;-43
2023/05/22 09:12:10;;;;;;;12.18;10.02;;;21.30;99.90;;;;;;5072837;28;20654;-48
2023/05/22 09:14:42;;;;;;;13.93;10.77;;;21.30;99.90;;;;;;5073366;28;20500;-46
2023/05/22 09:17:13;;;;;;;14.18;11.13;;;21.40;99.90;;;;;;5070798;28;20074;-40
2023/05/22 09:19:45;;;;;;;17.30;11.45;;;21.60;99.90;;;;;;5071049;28;20489;-47
2023/05/22 09:22:12;;;;;;;13.75;11.07;;;21.70;99.90;;;;;;5088786;28;20206;-48
2023/05/22 09:24:42;;;;;;;12.02;10.82;;;21.70;99.90;;;;;;5066003;28;20272;-46
2023/05/22 09:27:09;;;;;;;16.27;11.75;;;21.80;99.90;;;;;;5070678;28;20413;-46
2023/05/22 09:29:52;;;;;;;14.80;11.80;;;22.00;99.90;;;;;;5099793;27;20116;-45
2023/05/22 09:32:18;;;;;;;19.27;13.10;;;22.00;99.90;;;;;;5070368;28;20090;-44
2023/05/22 09:34:45;;;;;;;16.95;12.45;;;22.00;99.90;;;;;;5072578;28;20048;-43
2023/05/22 09:37:15;;;;;;;13.35;11.82;;;22.00;99.90;;;;;;5069335;28;20516;-44
2023/05/22 09:39:46;;;;;;;18.70;12.10;;;22.20;99.90;;;;;;5072387;28;20044;-47
2023/05/22 09:42:15;;;;;;;13.18;11.77;;;22.20;99.90;;;;;;5075861;28;20040;-46
2023/05/22 09:44:46;;;;;;;16.30;12.40;;;22.10;99.90;;;;;;5067519;28;20079;-44
2023/05/22 09:47:12;;;;;;;15.75;11.57;;;22.10;99.90;;;;;;5076681;28;20075;-38
2023/05/22 09:49:42;;;;;;;16.27;12.55;;;22.20;99.90;;;;;;5075828;28;20046;-46
2023/05/22 09:52:08;;;;;;;15.73;14.13;;;22.40;99.90;;;;;;5076030;28;20478;-44
2023/05/22 09:54:38;;;;;;;15.30;13.60;;;22.40;99.90;;;;;;5077532;28;20056;-42
2023/05/22 09:57:08;;;;;;;14.57;12.35;;;22.40;99.90;;;;;;5076409;28;20051;-40
2023/05/22 09:59:37;;;;;;;17.95;13.27;;;22.50;99.90;;;;;;5077336;28;20142;-43
2023/05/22 10:02:05;;;;;;;15.90;13.45;;;22.60;99.90;;;;;;5075688;28;20123;-41
2023/05/22 10:04:32;;;;;;;16.52;13.52;;;22.70;99.90;;;;;;5075812;28;20050;-46
2023/05/22 10:07:02;;;;;;;15.00;13.15;;;22.70;99.90;;;;;;5075616;28;20496;-41
2023/05/22 10:09:33;;;;;;;16.05;14.30;;;22.70;99.90;;;;;;5067776;28;20036;-45
2023/05/22 10:12:03;;;;;;;16.30;14.85;;;22.80;99.90;;;;;;5077169;28;20052;-43
2023/05/22 10:14:29;;;;;;;15.52;13.85;;;22.90;99.90;;;;;;5074941;28;20064;-41
2023/05/22 10:16:56;;;;;;;17.63;15.98;;;22.90;99.90;;;;;;5075700;28;20047;-41
2023/05/22 10:19:25;;;;;;;14.95;13.35;;;23.00;99.90;;;;;;5069734;28;20048;-40
2023/05/22 10:21:52;;;;;;;15.30;13.85;;;23.10;99.90;;;;;;5066815;28;20050;-48
2023/05/22 10:24:18;;;;;;;16.65;13.88;;;23.10;99.90;;;;;;5072989;28;20842;-43
2023/05/22 10:26:44;;;;;;;17.00;15.23;;;23.20;99.90;;;;;;5073713;28;20051;-46
2023/05/22 10:29:16;;;;;;;16.88;13.57;;;23.30;99.90;;;;;;5075975;28;20597;-44
2023/05/22 10:31:54;;;;;;;16.95;14.38;;;23.50;99.90;;;;;;5076927;28;20055;-45
2023/05/22 10:34:28;;;;;;;15.40;14.00;;;23.60;99.90;;;;;;5076092;28;20127;-45
2023/05/22 10:37:06;;;;;;;18.30;14.65;;;23.50;99.90;;;;;;5070909;28;20051;-38
2023/05/22 10:39:47;;;;;;;15.48;13.77;;;23.30;99.90;;;;;;5075973;28;20087;-41
2023/05/22 10:42:14;;;;;;;15.73;14.02;;;23.20;99.90;;;;;;5074983;28;20449;-45
2023/05/22 10:44:40;;;;;;;15.35;14.05;;;23.30;99.90;;;;;;5064903;28;20121;-47
2023/05/22 10:47:10;;;;;;;15.77;14.18;;;23.40;99.90;;;;;;5061731;28;20036;-41
2023/05/22 10:49:35;;;;;;;17.92;15.88;;;23.70;99.90;;;;;;5074929;28;20081;-46
2023/05/22 10:52:02;;;;;;;16.92;15.07;;;23.80;99.90;;;;;;5077042;28;20439;-44
2023/05/22 10:54:39;;;;;;;16.02;14.48;;;24.10;99.90;;;;;;5076326;28;20062;-43
2023/05/22 10:57:15;;;;;;;15.68;14.18;;;24.30;99.90;;;;;;5074775;28;20282;-43
2023/05/22 10:59:41;;;;;;;16.73;15.18;;;24.50;99.90;;;;;;5075010;28;20036;-42
2023/05/22 11:02:21;;;;;;;17.17;15.27;;;24.60;99.90;;;;;;5076034;28;20403;-46
2023/05/22 11:04:47;;;;;;;16.90;15.30;;;24.40;99.90;;;;;;5073085;28;20051;-40
2023/05/22 11:07:13;;;;;;;17.75;15.85;;;24.40;99.90;;;;;;5075424;28;20047;-37
2023/05/22 11:09:46;;;;;;;18.50;15.65;;;24.40;99.90;;;;;;5067093;28;20051;-46
2023/05/22 11:12:19;;;;;;;17.63;15.98;;;24.40;99.90;;;;;;5067118;28;20045;-41
2023/05/22 11:15:09;;;;;;;18.58;16.73;;;24.40;99.90;;;;;;5071611;28;20100;-41
2023/05/22 11:17:50;;;;;;;17.77;15.68;;;24.30;99.90;;;;;;5075521;28;20096;-39
2023/05/22 11:20:25;;;;;;;18.25;16.55;;;24.40;99.90;;;;;;5064317;28;20131;-40
2023/05/22 11:23:07;;;;;;;18.10;16.40;;;24.30;99.90;;;;;;5072812;28;20040;-38
2023/05/22 11:25:35;;;;;;;18.92;17.02;;;24.30;99.90;;;;;;5072958;28;20055;-42
2023/05/22 11:28:02;;;;;;;19.30;17.33;;;24.40;99.90;;;;;;5074546;28;20472;-41
2023/05/22 11:30:31;;;;;;;19.55;17.75;;;24.40;99.90;;;;;;5075487;28;20067;-41
2023/05/22 11:32:57;;;;;;;18.83;16.85;;;24.40;99.90;;;;;;5075470;28;20455;-41
2023/05/22 11:35:23;;;;;;;18.08;16.27;;;24.60;99.90;;;;;;5071917;28;20454;-44
2023/05/22 11:37:51;;;;;;;18.80;17.10;;;24.80;99.90;;;;;;5071302;28;20097;-41
2023/05/22 11:40:19;;;;;;;19.38;17.13;;;24.90;99.90;;;;;;5108575;27;20052;-40
2023/05/22 11:42:57;;;;;;;17.58;15.88;;;24.80;99.90;;;;;;5101450;27;20512;-45
2023/05/22 11:45:24;;;;;;;18.70;16.88;;;24.80;99.90;;;;;;5049914;28;20101;-43
2023/05/22 11:47:50;;;;;;;19.15;17.15;;;24.80;99.90;;;;;;5075044;28;20532;-47
2023/05/22 11:50:16;;;;;;;19.63;17.77;;;24.70;99.90;;;;;;5074789;28;20508;-45
2023/05/22 11:52:42;;;;;;;19.88;17.83;;;24.50;99.90;;;;;;5074719;28;20047;-42
2023/05/22 11:55:15;;;;;;;18.13;16.42;;;24.40;99.90;;;;;;5071413;28;20040;-43
2023/05/22 11:57:40;;;;;;;20.70;18.52;;;24.40;99.90;;;;;;5074730;28;20069;-47
2023/05/22 12:00:07;;;;;;;20.00;18.02;;;24.20;99.90;;;;;;5072843;28;20036;-43
2023/05/22 12:02:33;;;;;;;19.45;17.80;;;24.30;99.90;;;;;;5071514;28;20044;-43
2023/05/22 12:04:59;;;;;;;18.95;17.27;;;24.40;99.90;;;;;;5072204;28;20040;-41
2023/05/22 12:07:26;;;;;;;19.88;17.83;;;24.20;99.90;;;;;;5070112;28;20405;-44
2023/05/22 12:09:54;;;;;;;18.08;16.60;;;24.30;99.90;;;;;;5065930;28;20070;-41
2023/05/22 12:12:20;;;;;;;18.52;16.60;;;24.40;99.90;;;;;;5073815;28;20430;-47
2023/05/22 12:14:47;;;;;;;20.33;18.33;;;24.50;99.90;;;;;;5072928;28;20039;-41
2023/05/22 12:17:14;;;;;;;20.77;18.73;;;24.40;99.90;;;;;;5066624;28;20040;-42
2023/05/22 12:19:45;;;;;;;19.30;17.50;;;24.20;99.90;;;;;;5074694;28;20050;-46
2023/05/22 12:22:12;;;;;;;20.45;18.58;;;24.20;99.90;;;;;;5074661;28;20079;-47
2023/05/22 12:24:45;;;;;;;18.98;17.13;;;24.00;99.90;;;;;;5073096;28;20048;-44
2023/05/22 12:27:12;;;;;;;18.80;16.92;;;23.90;99.90;;;;;;5063657;28;20072;-44
2023/05/22 12:29:39;;;;;;;18.50;16.90;;;23.80;99.90;;;;;;5061866;28;20109;-43